Time;durP1;ratioP1;P1;durP2;ratioP2;P2;SDS_P1;SDS_P2;PMS_P1;PMS_P2;Temp;Humidity;BMP_temperature;BMP_pressure;BME280_temperature;BME280_humidity;BME280_pressure;Samples;Min_cycle;Max_cycle;Signal;HPM_P1;HPM_P2
2021/12/03 00:01:56;;;;;;;10.48;5.50;;;;;;;19.65;33.56;97349.38;5142089;27;20031;-61
2021/12/03 00:04:21;;;;;;;7.25;6.30;;;;;;;19.64;33.69;97355.78;5155406;27;20545;-64
2021/12/03 00:06:47;;;;;;;6.63;6.00;;;;;;;19.64;33.61;97356.63;5142588;27;20027;-66
2021/12/03 00:09:13;;;;;;;8.35;6.00;;;;;;;19.63;33.46;97365.72;5134670;27;20034;-67
2021/12/03 00:11:39;;;;;;;7.03;4.97;;;;;;;19.67;33.54;97368.75;5134191;27;20532;-67
2021/12/03 00:14:04;;;;;;;4.60;4.18;;;;;;;19.69;32.95;97365.84;5134495;27;20039;-61
2021/12/03 00:16:30;;;;;;;5.20;4.22;;;;;;;19.66;32.42;97367.13;5133911;27;20023;-63
2021/12/03 00:18:56;;;;;;;10.15;6.53;;;;;;;19.64;32.50;97371.88;5134032;27;20031;-62
2021/12/03 00:21:24;;;;;;;7.47;4.68;;;;;;;19.64;32.33;97361.16;5128099;27;20055;-70
2021/12/03 00:23:49;;;;;;;10.30;4.78;;;;;;;19.62;32.44;97371.34;5147837;27;20449;-62
2021/12/03 00:26:15;;;;;;;4.82;4.32;;;;;;;19.62;32.48;97371.34;5138283;27;20072;-61
2021/12/03 00:28:40;;;;;;;4.80;4.20;;;;;;;19.62;32.29;97365.97;5134318;27;20397;-65
2021/12/03 00:31:07;;;;;;;5.78;4.15;;;;;;;19.62;32.30;97364.09;5134334;27;20027;-64
2021/12/03 00:33:35;;;;;;;4.75;3.80;;;;;;;19.63;32.32;97364.91;5129972;27;20105;-64
2021/12/03 00:36:04;;;;;;;6.88;4.22;;;;;;;19.64;32.29;97355.78;5118722;27;20040;-63
2021/12/03 00:38:35;;;;;;;6.93;4.30;;;;;;;19.66;32.31;97356.38;5116698;27;20073;-63
2021/12/03 00:41:01;;;;;;;4.75;3.85;;;;;;;19.64;32.23;97353.94;5118269;27;20039;-63
2021/12/03 00:43:26;;;;;;;4.35;3.38;;;;;;;19.65;32.02;97346.69;5116572;27;20034;-63
2021/12/03 00:45:54;;;;;;;4.95;3.85;;;;;;;19.65;32.21;97349.38;5113054;28;20051;-64
2021/12/03 00:48:19;;;;;;;4.30;3.67;;;;;;;19.68;32.09;97351.59;5123497;27;20038;-64
2021/12/03 00:50:45;;;;;;;4.78;3.45;;;;;;;19.68;32.16;97346.25;5128439;27;20035;-64
2021/12/03 00:53:10;;;;;;;5.28;3.72;;;;;;;19.68;32.17;97343.56;5119285;27;20524;-64
2021/12/03 00:55:36;;;;;;;4.60;3.35;;;;;;;19.69;32.29;97344.38;5122133;27;20037;-64
2021/12/03 00:58:02;;;;;;;3.47;2.95;;;;;;;19.68;32.37;97351.59;5125551;27;20039;-65
2021/12/03 01:00:31;;;;;;;7.22;3.38;;;;;;;19.70;32.24;97354.88;5114570;27;20535;-64
2021/12/03 01:02:59;;;;;;;5.18;3.63;;;;;;;19.72;32.22;97360.81;5114271;27;20027;-65
2021/12/03 01:05:25;;;;;;;4.45;3.38;;;;;;;19.72;32.10;97368.88;5112858;28;20027;-65
2021/12/03 01:07:51;;;;;;;4.32;3.30;;;;;;;19.73;31.79;97361.63;5117937;27;20027;-64
2021/12/03 01:10:17;;;;;;;3.47;2.63;;;;;;;19.72;31.74;97358.16;5112935;28;20027;-65
2021/12/03 01:12:43;;;;;;;5.10;3.10;;;;;;;19.73;31.87;97364.31;5112785;28;20524;-64
2021/12/03 01:15:11;;;;;;;3.97;3.35;;;;;;;19.75;32.18;97363.03;5112876;28;20035;-65
2021/12/03 01:17:37;;;;;;;4.57;3.20;;;;;;;19.77;31.85;97368.16;5125267;27;20042;-65
2021/12/03 01:20:07;;;;;;;4.22;3.40;;;;;;;19.78;31.95;97367.91;5133796;28;20035;-65
2021/12/03 01:22:33;;;;;;;5.53;3.53;;;;;;;19.80;32.04;97371.19;5126583;27;20024;-64
2021/12/03 01:24:58;;;;;;;3.85;2.90;;;;;;;19.80;31.83;97376.56;5113233;28;20042;-65
2021/12/03 01:27:24;;;;;;;3.92;2.70;;;;;;;19.83;31.84;97380.66;5119886;27;20027;-64
2021/12/03 01:29:49;;;;;;;3.70;2.83;;;;;;;19.80;32.11;97386.50;5133690;28;20152;-65
2021/12/03 01:32:15;;;;;;;5.07;3.35;;;;;;;19.81;31.98;97378.19;5133401;27;20034;-65
2021/12/03 01:34:40;;;;;;;3.78;3.17;;;;;;;19.83;31.90;97377.97;5134025;28;20564;-65
2021/12/03 01:37:06;;;;;;;4.63;3.03;;;;;;;19.83;32.08;97377.97;5133320;27;20023;-64
2021/12/03 01:39:32;;;;;;;4.15;3.33;;;;;;;19.85;32.09;97381.25;5133354;28;20060;-65
2021/12/03 01:41:57;;;;;;;3.75;2.55;;;;;;;19.86;31.90;97384.72;5133434;27;20163;-64
2021/12/03 01:44:23;;;;;;;3.47;2.88;;;;;;;19.83;31.79;97378.78;5133375;27;20059;-65
2021/12/03 01:46:49;;;;;;;3.53;2.78;;;;;;;19.85;31.96;97383.09;5132934;27;20035;-65
2021/12/03 01:49:14;;;;;;;4.20;2.78;;;;;;;19.82;31.85;97385.19;5133308;28;20031;-64
2021/12/03 01:51:42;;;;;;;3.20;2.75;;;;;;;19.82;31.85;97390.56;5133247;27;20042;-64
2021/12/03 01:54:07;;;;;;;3.63;2.80;;;;;;;19.81;31.74;97405.03;5133427;28;20464;-65
2021/12/03 01:56:33;;;;;;;3.75;3.15;;;;;;;19.81;31.87;97399.66;5133291;27;20079;-66
2021/12/03 01:58:58;;;;;;;5.20;3.08;;;;;;;19.81;31.83;97407.72;5133121;28;20062;-66
2021/12/03 02:01:28;;;;;;;4.00;3.00;;;;;;;19.81;31.96;97401.53;5132897;27;20042;-65
2021/12/03 02:03:57;;;;;;;3.63;2.88;;;;;;;19.80;31.95;97403.41;5132957;28;20092;-65
2021/12/03 02:06:26;;;;;;;3.63;2.97;;;;;;;19.82;31.81;97409.34;5133312;27;20034;-65
2021/12/03 02:08:53;;;;;;;3.28;2.70;;;;;;;19.81;32.09;97414.97;5133380;28;20038;-65
2021/12/03 02:11:19;;;;;;;3.83;2.95;;;;;;;19.81;32.05;97423.81;5133011;27;20035;-65
2021/12/03 02:13:46;;;;;;;3.55;3.00;;;;;;;19.82;32.05;97421.97;5132507;28;20083;-66
2021/12/03 02:16:13;;;;;;;4.60;3.10;;;;;;;19.81;31.96;97423.81;5135507;27;20030;-66
2021/12/03 02:18:39;;;;;;;4.68;2.88;;;;;;;19.82;31.96;97422.75;5137034;27;20118;-66
2021/12/03 02:21:06;;;;;;;3.95;2.88;;;;;;;19.83;31.88;97426.28;5136900;27;20038;-66
2021/12/03 02:23:32;;;;;;;3.83;3.17;;;;;;;19.85;31.84;97424.19;5136911;27;20165;-66
2021/12/03 02:25:58;;;;;;;4.38;3.03;;;;;;;19.84;31.87;97419.88;5122824;27;20524;-66
2021/12/03 02:28:29;;;;;;;3.60;2.95;;;;;;;19.86;31.77;97430.34;5136665;27;20152;-66
2021/12/03 02:30:55;;;;;;;3.65;2.90;;;;;;;19.87;31.86;97423.97;5136926;27;20110;-66
2021/12/03 02:33:21;;;;;;;3.08;2.55;;;;;;;19.86;31.79;97422.31;5136201;27;20453;-65
2021/12/03 02:35:48;;;;;;;3.95;2.67;;;;;;;19.87;32.02;97426.66;5136377;27;20087;-66
2021/12/03 02:38:17;;;;;;;4.05;3.15;;;;;;;19.88;31.88;97422.94;5136221;27;20046;-65
2021/12/03 02:40:44;;;;;;;4.45;3.25;;;;;;;19.88;31.91;97429.09;5136390;27;20050;-65
2021/12/03 02:43:10;;;;;;;3.05;2.60;;;;;;;19.86;31.74;97427.66;5136320;27;20497;-65
2021/12/03 02:45:35;;;;;;;3.90;2.92;;;;;;;19.86;31.76;97433.03;5117949;27;20027;-65
2021/12/03 02:48:04;;;;;;;3.40;2.53;;;;;;;19.85;31.92;97426.88;5136520;27;20039;-66
2021/12/03 02:50:30;;;;;;;4.05;2.90;;;;;;;19.88;31.85;97428.28;5136510;27;20401;-65
2021/12/03 02:52:56;;;;;;;3.50;2.45;;;;;;;19.87;31.91;97429.34;5135878;27;20118;-65
2021/12/03 02:55:23;;;;;;;4.90;2.58;;;;;;;19.89;32.00;97427.25;5135873;27;20113;-65
2021/12/03 02:57:48;;;;;;;3.90;2.97;;;;;;;19.88;31.87;97431.78;5135887;27;20070;-65
2021/12/03 03:00:18;;;;;;;5.22;3.72;;;;;;;19.88;32.00;97447.06;5135926;27;20497;-65
2021/12/03 03:02:44;;;;;;;4.43;3.30;;;;;;;19.88;32.18;97450.56;5135793;27;20035;-65
2021/12/03 03:05:11;;;;;;;4.25;3.30;;;;;;;19.90;31.98;97450.34;5135976;27;20509;-65
2021/12/03 03:07:38;;;;;;;4.00;3.10;;;;;;;19.92;32.06;97459.00;5135597;27;20548;-65
2021/12/03 03:10:09;;;;;;;3.97;3.20;;;;;;;19.91;32.08;97452.00;5135747;27;20039;-66
2021/12/03 03:12:34;;;;;;;4.88;3.63;;;;;;;19.93;32.05;97457.91;5135145;27;20482;-66
2021/12/03 03:15:01;;;;;;;4.22;3.63;;;;;;;19.94;32.03;97457.69;5135475;27;20071;-66
2021/12/03 03:17:29;;;;;;;3.47;2.80;;;;;;;19.94;32.29;97473.81;5134902;27;20038;-65
2021/12/03 03:19:57;;;;;;;5.07;3.90;;;;;;;19.94;31.91;97470.28;5135797;27;20071;-65
2021/12/03 03:22:23;;;;;;;4.13;2.83;;;;;;;19.94;31.98;97475.66;5135305;27;20406;-65
2021/12/03 03:24:50;;;;;;;3.85;3.03;;;;;;;19.96;32.11;97468.19;5135472;27;20066;-65
2021/12/03 03:27:17;;;;;;;5.20;3.60;;;;;;;19.95;32.03;97483.50;5133301;27;20031;-65
2021/12/03 03:29:44;;;;;;;4.07;3.58;;;;;;;19.94;31.85;97481.84;5135643;27;20030;-65
2021/12/03 03:32:10;;;;;;;6.10;3.78;;;;;;;19.96;32.05;97482.44;5134649;27;20121;-65
2021/12/03 03:34:36;;;;;;;5.45;3.47;;;;;;;19.95;31.90;97482.66;5135044;27;20109;-65
2021/12/03 03:37:03;;;;;;;4.00;3.38;;;;;;;19.95;32.23;97474.59;5135279;27;20122;-65
2021/12/03 03:39:28;;;;;;;4.82;3.20;;;;;;;19.94;32.18;97464.91;5135592;27;20031;-65
2021/12/03 03:41:54;;;;;;;4.13;3.20;;;;;;;19.96;32.17;97460.13;5146023;27;20392;-65
2021/12/03 03:44:20;;;;;;;4.03;3.30;;;;;;;19.96;32.04;97457.44;5134988;27;20043;-65
2021/12/03 03:46:48;;;;;;;3.78;2.92;;;;;;;19.96;32.22;97470.88;5134811;27;20039;-66
2021/12/03 03:49:14;;;;;;;4.32;3.53;;;;;;;19.96;32.02;97469.03;5134992;27;20050;-66
2021/12/03 03:51:40;;;;;;;3.95;2.95;;;;;;;19.96;32.22;97463.66;5138121;27;20030;-65
2021/12/03 03:54:05;;;;;;;4.93;3.35;;;;;;;19.96;32.04;97473.56;5135119;27;20083;-65
2021/12/03 03:56:31;;;;;;;4.18;3.55;;;;;;;19.94;31.96;97479.16;5134158;27;20031;-65
2021/12/03 03:58:57;;;;;;;4.70;3.78;;;;;;;19.93;32.04;97487.44;5134625;27;20114;-65
2021/12/03 04:01:22;;;;;;;4.75;3.35;;;;;;;19.94;32.31;97486.38;5134513;27;20041;-66
2021/12/03 04:03:48;;;;;;;4.45;3.33;;;;;;;19.94;32.13;97489.91;5134998;27;20458;-66
2021/12/03 04:06:16;;;;;;;4.82;3.28;;;;;;;19.95;32.27;97494.22;5134685;27;20478;-64
2021/12/03 04:08:43;;;;;;;4.88;3.30;;;;;;;19.94;32.39;97489.91;5135857;27;20035;-65
2021/12/03 04:11:10;;;;;;;5.50;4.25;;;;;;;19.95;32.35;97502.28;5134158;27;20512;-64
2021/12/03 04:13:36;;;;;;;5.90;3.83;;;;;;;19.95;32.21;97504.13;5133969;27;20137;-65
2021/12/03 04:16:02;;;;;;;4.15;3.08;;;;;;;19.96;32.18;97505.75;5135257;27;20065;-65
2021/12/03 04:18:28;;;;;;;4.43;3.60;;;;;;;19.97;32.30;97502.03;5134218;27;20039;-65
2021/12/03 04:20:53;;;;;;;4.38;3.63;;;;;;;19.99;32.20;97499.13;5134139;27;20043;-65
2021/12/03 04:23:20;;;;;;;4.68;3.60;;;;;;;19.99;32.21;97504.50;5133721;27;20494;-64
2021/12/03 04:25:47;;;;;;;4.90;3.33;;;;;;;19.97;32.20;97510.09;5134339;27;20550;-65
2021/12/03 04:28:14;;;;;;;4.68;3.42;;;;;;;19.96;32.15;97503.91;5126331;27;20039;-65
2021/12/03 04:30:40;;;;;;;4.75;3.20;;;;;;;19.97;32.24;97518.97;5113886;28;20421;-65
2021/12/03 04:33:06;;;;;;;4.75;3.50;;;;;;;19.99;32.27;97518.72;5129504;27;20035;-66
2021/12/03 04:35:32;;;;;;;4.00;3.53;;;;;;;20.00;32.26;97512.31;5134420;27;20065;-66
2021/12/03 04:37:58;;;;;;;6.13;4.43;;;;;;;19.99;32.24;97513.38;5133487;27;20113;-66
2021/12/03 04:40:24;;;;;;;4.35;3.40;;;;;;;19.98;32.33;97517.09;5133932;27;20094;-66
2021/12/03 04:42:51;;;;;;;4.63;3.50;;;;;;;19.99;32.43;97518.72;5133081;27;20034;-66
2021/12/03 04:45:21;;;;;;;4.43;3.53;;;;;;;20.01;32.27;97529.22;5151307;27;20035;-66
2021/12/03 04:47:49;;;;;;;4.47;3.30;;;;;;;20.00;32.33;97519.56;5149037;27;20359;-65
2021/12/03 04:50:15;;;;;;;8.63;4.20;;;;;;;20.00;32.19;97524.94;5135031;27;20544;-66
2021/12/03 04:52:41;;;;;;;5.43;3.55;;;;;;;20.02;32.25;97538.91;5133741;27;20058;-66
2021/12/03 04:55:08;;;;;;;4.93;3.95;;;;;;;20.02;32.18;97549.66;5133169;27;20096;-66
2021/12/03 04:57:34;;;;;;;3.70;2.78;;;;;;;20.04;32.33;97542.19;5133301;27;20019;-66
2021/12/03 05:00:00;;;;;;;5.07;3.58;;;;;;;20.04;32.21;97551.06;5133857;27;20389;-66
2021/12/03 05:02:27;;;;;;;5.28;4.30;;;;;;;20.03;32.20;97545.91;5132998;27;20393;-66
2021/12/03 05:04:55;;;;;;;5.50;3.55;;;;;;;20.02;32.22;97544.28;5133988;27;20031;-65
2021/12/03 05:09:58;;;;;;;5.35;3.60;;;;;;;19.98;32.42;97560.03;5132935;27;20031;-66
2021/12/03 05:12:24;;;;;;;4.88;4.00;;;;;;;19.98;32.40;97565.41;5132757;27;20054;-66
2021/12/03 05:14:50;;;;;;;3.85;3.35;;;;;;;20.00;32.22;97568.69;5133656;27;20039;-66
2021/12/03 05:17:16;;;;;;;4.63;3.63;;;;;;;20.01;32.27;97570.31;5133367;27;20033;-66
2021/12/03 05:19:41;;;;;;;4.72;3.70;;;;;;;20.00;32.38;97566.00;5122216;27;20033;-66
2021/12/03 05:22:07;;;;;;;4.40;3.55;;;;;;;20.02;32.28;97568.44;5154002;27;20053;-66
2021/12/03 05:24:33;;;;;;;4.43;3.58;;;;;;;20.01;32.30;97570.31;5154509;27;20441;-66
2021/12/03 05:26:58;;;;;;;4.47;3.70;;;;;;;20.01;32.33;97578.38;5154203;27;20034;-66
2021/12/03 05:29:24;;;;;;;4.63;3.53;;;;;;;20.00;32.10;97576.75;5148938;27;20038;-67
2021/12/03 05:31:50;;;;;;;4.65;3.72;;;;;;;20.00;32.29;97574.06;5131039;27;20031;-66
2021/12/03 05:34:16;;;;;;;5.20;3.58;;;;;;;19.99;32.24;97583.16;5133127;28;20485;-66
2021/12/03 05:36:46;;;;;;;6.13;3.45;;;;;;;20.00;32.19;97584.78;5132971;27;20031;-66
2021/12/03 05:39:13;;;;;;;3.97;3.05;;;;;;;19.99;32.27;97591.19;5133883;28;20585;-66
2021/12/03 05:41:40;;;;;;;4.10;3.25;;;;;;;20.00;32.25;97584.78;5132757;27;20039;-65
2021/12/03 05:44:05;;;;;;;5.55;3.50;;;;;;;20.00;32.21;97592.84;5133340;28;20035;-66
2021/12/03 05:46:31;;;;;;;4.75;3.70;;;;;;;19.99;32.22;97593.09;5134190;27;20613;-66
2021/12/03 05:48:57;;;;;;;3.80;3.10;;;;;;;19.96;32.43;97595.19;5135929;27;20027;-65
2021/12/03 05:51:25;;;;;;;4.97;3.40;;;;;;;19.94;32.42;97596.44;5137188;27;20035;-65
2021/12/03 05:53:51;;;;;;;5.00;3.78;;;;;;;19.94;32.46;97607.16;5137036;27;20042;-65
2021/12/03 05:56:17;;;;;;;4.00;3.42;;;;;;;19.94;32.41;97604.47;5136851;27;20027;-64
2021/12/03 05:58:42;;;;;;;5.40;3.67;;;;;;;19.92;32.64;97606.59;5136314;27;20043;-65
2021/12/03 06:01:08;;;;;;;4.00;3.42;;;;;;;19.92;32.60;97612.78;5136959;27;20038;-65
2021/12/03 06:03:34;;;;;;;4.72;3.45;;;;;;;19.90;32.46;97616.75;5136475;27;20027;-65
2021/12/03 06:06:00;;;;;;;4.05;3.20;;;;;;;19.90;32.50;97622.13;5137119;27;20478;-65
2021/12/03 06:08:25;;;;;;;5.15;3.70;;;;;;;19.90;32.58;97622.91;5136771;27;20114;-65
2021/12/03 06:10:51;;;;;;;5.88;3.60;;;;;;;19.89;32.44;97621.28;5137251;27;20397;-65
2021/12/03 06:13:16;;;;;;;5.30;3.65;;;;;;;19.91;32.36;97631.81;5135882;27;20047;-65
2021/12/03 06:15:42;;;;;;;6.57;4.82;;;;;;;19.91;32.50;97621.88;5136261;27;20470;-65
2021/12/03 06:18:07;;;;;;;5.32;3.63;;;;;;;19.92;32.55;97631.56;5136484;27;20043;-65
2021/12/03 06:20:33;;;;;;;5.43;3.00;;;;;;;19.92;32.62;97625.38;5137000;27;20045;-65
2021/12/03 06:22:59;;;;;;;5.40;3.85;;;;;;;19.92;32.43;97633.44;5136937;27;20041;-65
2021/12/03 06:25:24;;;;;;;4.53;3.70;;;;;;;19.92;32.48;97633.44;5136837;27;20031;-65
2021/12/03 06:27:50;;;;;;;5.80;3.67;;;;;;;19.92;32.32;97636.94;5135842;27;20436;-65
2021/12/03 06:30:19;;;;;;;4.78;3.53;;;;;;;19.93;32.36;97632.38;5136141;27;20039;-65
2021/12/03 06:32:45;;;;;;;5.32;3.83;;;;;;;19.93;32.33;97630.53;5121353;27;20031;-65
2021/12/03 06:35:13;;;;;;;4.72;3.75;;;;;;;19.95;32.36;97641.84;5116115;28;20444;-65
2021/12/03 06:37:39;;;;;;;4.68;3.70;;;;;;;19.94;32.26;97648.25;5125850;27;20076;-65
2021/12/03 06:40:10;;;;;;;5.30;3.58;;;;;;;19.97;32.14;97663.91;5137098;27;20030;-65
2021/12/03 06:42:36;;;;;;;5.15;3.67;;;;;;;19.97;32.21;97653.19;5136972;27;20080;-66
2021/12/03 06:45:05;;;;;;;5.80;3.20;;;;;;;19.99;32.39;97663.69;5136265;27;20047;-65
2021/12/03 06:47:31;;;;;;;4.82;3.60;;;;;;;20.01;32.20;97676.88;5117541;27;20078;-65
2021/12/03 06:49:57;;;;;;;4.43;3.40;;;;;;;20.04;32.37;97681.78;5136492;27;20062;-65
2021/12/03 06:52:23;;;;;;;4.43;3.45;;;;;;;20.04;32.28;97682.63;5135848;27;20031;-66
2021/12/03 06:54:56;;;;;;;5.63;3.78;;;;;;;20.02;32.16;97679.34;5139470;27;20042;-67
2021/12/03 06:57:22;;;;;;;4.50;3.47;;;;;;;20.05;32.53;97686.09;5156624;27;20026;-67
2021/12/03 06:59:47;;;;;;;5.13;3.88;;;;;;;20.06;32.33;97687.75;5139265;27;20047;-66
2021/12/03 07:02:13;;;;;;;5.28;3.83;;;;;;;20.09;32.49;97682.72;5134660;27;20031;-65
2021/12/03 07:04:40;;;;;;;4.30;3.45;;;;;;;20.11;32.62;97694.06;5135341;27;20492;-65
2021/12/03 07:07:05;;;;;;;4.45;3.38;;;;;;;20.11;32.88;97686.00;5116981;27;20034;-66
2021/12/03 07:09:31;;;;;;;5.70;2.65;;;;;;;20.11;33.19;97672.59;5135731;27;20027;-66
2021/12/03 07:11:56;;;;;;;4.18;3.13;;;;;;;20.10;33.22;97688.94;5135339;27;20077;-66
2021/12/03 07:14:22;;;;;;;7.40;3.10;;;;;;;20.06;33.55;97691.25;5135321;27;20041;-65
2021/12/03 07:16:47;;;;;;;5.18;3.15;;;;;;;19.99;33.73;97697.78;5135824;27;20031;-64
2021/12/03 07:19:13;;;;;;;3.80;2.85;;;;;;;19.95;33.88;97692.00;5135555;27;20050;-65
2021/12/03 07:21:40;;;;;;;3.00;2.50;;;;;;;19.91;34.02;97693.53;5134994;27;20037;-65
2021/12/03 07:24:06;;;;;;;3.40;2.42;;;;;;;19.87;34.10;97676.25;5117515;27;20027;-64
2021/12/03 07:26:31;;;;;;;7.25;3.15;;;;;;;19.83;34.44;97671.28;5135401;27;20027;-65
2021/12/03 07:28:57;;;;;;;3.90;3.25;;;;;;;19.81;34.53;97689.47;5138963;27;20031;-64
2021/12/03 07:31:24;;;;;;;4.63;3.03;;;;;;;19.79;34.58;97691.56;5135208;27;20378;-64
2021/12/03 07:33:50;;;;;;;3.35;2.28;;;;;;;19.75;34.73;97690.41;5124365;27;20462;-65
2021/12/03 07:36:15;;;;;;;3.58;2.42;;;;;;;19.70;34.84;97692.94;5114989;28;20067;-64
2021/12/03 07:38:41;;;;;;;6.28;3.00;;;;;;;19.68;34.69;97692.34;5118886;27;20437;-64
2021/12/03 07:41:07;;;;;;;3.50;3.05;;;;;;;19.64;34.81;97710.75;5135073;27;20084;-65
2021/12/03 07:43:33;;;;;;;4.18;3.13;;;;;;;19.62;34.92;97714.72;5135008;27;20075;-64
2021/12/03 07:45:58;;;;;;;3.90;2.95;;;;;;;19.61;34.80;97718.44;5136030;27;20031;-64
2021/12/03 07:48:24;;;;;;;3.65;2.55;;;;;;;19.60;34.75;97720.28;5134840;27;20027;-64
2021/12/03 07:50:51;;;;;;;8.20;3.22;;;;;;;19.61;34.74;97715.75;5135177;27;20477;-64
2021/12/03 07:53:18;;;;;;;5.95;2.90;;;;;;;19.61;34.81;97727.28;5134908;27;20027;-65
2021/12/03 07:55:46;;;;;;;4.07;2.75;;;;;;;19.61;34.94;97718.44;5134874;27;20117;-65
2021/12/03 07:58:12;;;;;;;4.53;3.25;;;;;;;19.60;34.77;97724.84;5134468;27;20106;-65
2021/12/03 08:00:37;;;;;;;4.18;3.25;;;;;;;19.61;34.92;97734.53;5135324;27;20062;-65
2021/12/03 08:03:03;;;;;;;5.63;3.60;;;;;;;19.61;34.62;97729.16;5133969;27;20038;-65
2021/12/03 08:05:29;;;;;;;4.10;2.97;;;;;;;19.63;34.65;97741.31;5134679;27;20031;-65
2021/12/03 08:07:58;;;;;;;5.05;3.60;;;;;;;19.65;34.53;97739.22;5134805;27;20083;-65
2021/12/03 08:10:23;;;;;;;4.80;3.33;;;;;;;19.66;34.27;97743.53;5134297;27;20043;-64
2021/12/03 08:12:49;;;;;;;4.07;3.30;;;;;;;19.71;34.22;97745.56;5133157;27;20053;-65
2021/12/03 08:15:15;;;;;;;4.28;3.05;;;;;;;19.75;33.72;97743.22;5134605;27;20039;-64
2021/12/03 08:17:41;;;;;;;5.50;3.42;;;;;;;19.80;33.80;97744.19;5134068;27;20027;-64
2021/12/03 08:20:08;;;;;;;4.47;3.53;;;;;;;19.84;33.67;97736.53;5134691;27;20031;-64
2021/12/03 08:22:34;;;;;;;4.05;3.10;;;;;;;19.89;33.35;97735.88;5134259;27;20023;-64
2021/12/03 08:25:01;;;;;;;4.18;3.10;;;;;;;19.94;33.16;97731.47;5134581;27;20031;-64
2021/12/03 08:27:27;;;;;;;8.18;3.47;;;;;;;19.98;33.08;97737.19;5133600;27;20031;-64
2021/12/03 08:29:52;;;;;;;4.35;3.65;;;;;;;20.04;32.83;97735.47;5134256;27;20036;-65
2021/12/03 08:32:19;;;;;;;5.80;3.38;;;;;;;20.08;32.79;97742.03;5134119;27;20027;-65
2021/12/03 08:34:44;;;;;;;4.60;3.40;;;;;;;20.12;32.69;97741.34;5128691;27;20034;-65
2021/12/03 08:37:10;;;;;;;5.88;3.17;;;;;;;20.19;32.87;97740.44;5121749;27;20027;-65
2021/12/03 08:39:36;;;;;;;4.22;3.53;;;;;;;20.24;32.78;97743.25;5133869;27;20035;-65
2021/12/03 08:42:04;;;;;;;4.50;3.00;;;;;;;20.26;32.83;97747.38;5134199;27;20371;-65
2021/12/03 08:44:29;;;;;;;3.30;2.83;;;;;;;20.29;32.74;97740.72;5134295;27;20035;-65
2021/12/03 08:47:00;;;;;;;3.90;3.13;;;;;;;20.32;32.71;97740.25;5133727;27;20559;-65
2021/12/03 08:49:31;;;;;;;4.55;3.33;;;;;;;20.34;32.58;97746.22;5134239;27;20038;-66
2021/12/03 08:57:14;;;;;;;3.90;2.50;;;;;;;20.34;32.66;97748.91;5133642;27;20039;-65
2021/12/03 08:59:39;;;;;;;5.00;3.20;;;;;;;20.38;32.47;97751.97;5133607;27;20388;-66
2021/12/03 09:02:05;;;;;;;3.72;2.63;;;;;;;20.41;32.61;97748.81;5133912;27;20039;-66
2021/12/03 09:04:31;;;;;;;5.75;2.85;;;;;;;20.44;32.36;97745.66;5128622;27;20069;-64
2021/12/03 09:06:58;;;;;;;4.00;3.10;;;;;;;20.48;32.48;97748.72;5122864;27;20031;-65
2021/12/03 09:09:25;;;;;;;3.97;2.90;;;;;;;20.48;32.63;97757.59;5121617;27;20067;-64
2021/12/03 09:11:51;;;;;;;3.97;2.75;;;;;;;20.47;32.79;97755.94;5124314;27;20394;-65
2021/12/03 09:15:05;;;;;;;5.35;2.65;;;;;;;20.47;33.18;97755.94;5126902;27;20590;-62
2021/12/03 09:19:48;;;;;;;5.25;3.10;;;;;;;20.46;33.48;97756.19;5112309;28;20019;-62
2021/12/03 09:22:25;;;;;;;6.35;3.58;;;;;;;20.41;33.39;97760.38;5116732;27;20163;-62
2021/12/03 09:24:52;;;;;;;5.00;3.20;;;;;;;20.39;33.67;97764.34;5135332;27;20074;-63
2021/12/03 09:27:19;;;;;;;6.05;3.75;;;;;;;20.39;33.63;97773.22;5136039;27;20076;-63
2021/12/03 09:29:45;;;;;;;6.32;3.17;;;;;;;20.38;33.62;97776.94;5133200;27;20027;-63
2021/12/03 09:32:20;;;;;;;4.10;2.85;;;;;;;20.35;33.42;97761.31;5132664;27;20088;-70
2021/12/03 09:34:45;;;;;;;4.57;2.80;;;;;;;20.36;33.81;97752.19;5132215;27;20027;-60
2021/12/03 09:37:11;;;;;;;6.57;3.72;;;;;;;20.35;33.59;97747.88;5133189;27;20030;-62
2021/12/03 09:39:40;;;;;;;5.50;3.33;;;;;;;20.35;33.68;97752.41;5137635;27;20514;-61
2021/12/03 09:42:06;;;;;;;8.05;3.30;;;;;;;20.34;33.72;97748.91;5130794;27;20047;-65
2021/12/03 09:44:31;;;;;;;6.47;2.90;;;;;;;20.36;33.76;97748.69;5130014;27;20113;-65
2021/12/03 09:46:58;;;;;;;5.93;2.75;;;;;;;20.36;33.75;97754.88;5134542;27;20038;-60
2021/12/03 09:49:26;;;;;;;4.93;3.05;;;;;;;20.36;33.88;97762.94;5133562;27;20041;-63
2021/12/03 09:54:40;;;;;;;6.38;4.28;;;;;;;20.36;33.85;97762.94;5142496;27;20478;-63
2021/12/03 09:57:11;;;;;;;5.13;3.28;;;;;;;20.37;33.84;97766.44;5135814;27;20027;-59
2021/12/03 10:18:49;;;;;;;3.92;2.85;;;;;;;20.77;32.73;97765.06;5136494;27;20030;-66
2021/12/03 10:24:54;;;;;;;4.55;3.10;;;;;;;20.88;32.53;97770.44;5129880;27;20038;-66
2021/12/03 10:41:13;;;;;;;5.15;3.15;;;;;;;20.14;32.83;97754.56;5142745;27;20090;-69
2021/12/03 10:52:31;;;;;;;6.18;3.80;;;;;;;18.54;35.14;97771.94;5135632;27;20401;-69
2021/12/03 11:14:27;;;;;;;6.65;4.22;;;;;;;17.59;36.47;97776.00;5134827;27;20053;-67
2021/12/03 11:30:47;;;;;;;8.05;3.50;;;;;;;17.42;36.49;97769.50;5135528;27;20107;-67
2021/12/03 11:49:52;;;;;;;3.88;2.65;;;;;;;17.21;36.56;97768.69;5114339;28;20029;-68
2021/12/03 13:04:44;;;;;;;;;;;;;;;18.85;34.89;97719.34;5134581;27;20038;-68
2021/12/03 14:57:17;;;;;;;7.25;4.60;;;;;;;16.56;36.54;97665.13;5135846;27;20470;-66
2021/12/03 14:59:58;;;;;;;7.47;4.30;;;;;;;16.58;36.61;97673.75;5136034;27;20039;-66
2021/12/03 15:08:13;;;;;;;7.13;4.07;;;;;;;16.57;36.70;97656.91;5072603;28;20535;-66
2021/12/03 15:31:51;;;;;;;5.78;4.10;;;;;;;16.40;36.58;97637.81;5156279;27;20148;-67
2021/12/03 15:34:38;;;;;;;4.95;3.70;;;;;;;16.35;36.39;97642.13;5156269;27;20098;-67
2021/12/03 15:40:24;;;;;;;10.38;4.63;;;;;;;16.31;36.56;97637.22;5135824;27;20092;-67
2021/12/03 15:56:12;;;;;;;4.95;3.78;;;;;;;16.36;36.68;97623.25;5135150;27;20035;-67
2021/12/03 16:03:30;;;;;;;6.28;4.45;;;;;;;16.37;36.45;97622.22;5134604;27;20401;-66
2021/12/03 16:04:30;;;;;;;4.82;3.78;;;;;;;16.35;36.57;97626.94;5078851;27;20036;-68
2021/12/03 16:07:19;;;;;;;5.75;4.47;;;;;;;16.37;36.70;97619.56;5133944;27;20031;-65
2021/12/03 16:10:10;;;;;;;5.32;3.80;;;;;;;16.40;36.61;97611.13;5135256;27;20054;-65
2021/12/03 16:44:53;;;;;;;6.07;3.75;;;;;;;16.39;36.31;97588.16;5155470;27;20065;-66
2021/12/03 16:52:45;;;;;;;6.13;4.65;;;;;;;16.42;36.23;97566.34;5083086;27;20039;-66
2021/12/03 16:55:12;;;;;;;5.28;4.20;;;;;;;16.44;36.54;97576.84;5134158;27;20026;-67
2021/12/03 16:57:38;;;;;;;5.20;3.97;;;;;;;16.42;36.29;97585.03;5133590;27;20023;-66
2021/12/03 17:08:38;;;;;;;5.88;4.28;;;;;;;16.36;36.51;97569.88;5134206;27;20057;-66
2021/12/03 17:14:03;;;;;;;6.40;4.40;;;;;;;16.38;36.26;97565.16;5133446;27;20422;-66
2021/12/03 17:23:12;;;;;;;4.70;3.70;;;;;;;16.37;36.35;97552.00;5091357;27;20042;-66
2021/12/03 17:51:52;;;;;;;4.38;3.33;;;;;;;16.33;36.56;97554.25;5130523;27;20031;-66
2021/12/03 17:56:44;;;;;;;4.88;3.28;;;;;;;16.33;36.39;97532.91;5137235;27;20038;-67
2021/12/03 17:59:45;;;;;;;4.68;3.83;;;;;;;16.36;36.19;97529.84;5137093;27;20054;-67
2021/12/03 18:10:15;;;;;;;5.15;3.40;;;;;;;16.31;36.22;97542.97;5137070;27;20133;-67
2021/12/03 18:47:47;;;;;;;4.95;2.72;;;;;;;16.29;36.16;97561.88;5148535;27;20031;-67
2021/12/03 18:53:19;;;;;;;3.80;2.30;;;;;;;16.27;36.28;97571.09;5131114;27;20103;-67
2021/12/03 18:55:47;;;;;;;3.10;2.58;;;;;;;16.35;36.10;97572.72;5136156;27;20497;-67
2021/12/03 18:58:13;;;;;;;2.38;1.98;;;;;;;16.46;35.79;97575.59;5135032;27;20038;-67
2021/12/03 19:00:43;;;;;;;2.55;2.15;;;;;;;16.51;35.61;97582.97;5135894;27;20402;-66
2021/12/03 19:06:13;;;;;;;3.70;2.53;;;;;;;16.60;35.46;97594.25;5136466;27;20562;-67
2021/12/03 19:11:21;;;;;;;3.28;2.25;;;;;;;16.56;35.89;97577.84;5136376;27;20500;-67
2021/12/03 19:13:48;;;;;;;3.13;2.30;;;;;;;16.58;35.45;97580.28;5134431;27;20051;-67
2021/12/03 19:16:17;;;;;;;2.35;1.95;;;;;;;16.54;35.65;97576.44;5135693;27;20394;-66
2021/12/03 19:18:48;;;;;;;3.92;2.05;;;;;;;16.50;35.84;97572.53;5135388;27;20099;-67
2021/12/03 19:21:19;;;;;;;;;;;;;;;16.45;35.57;97576.63;5136321;27;20054;-66
2021/12/03 19:23:44;;;;;;;1.90;1.60;;;;;;;16.43;35.64;97586.69;5135566;27;19911;-67
2021/12/03 19:26:10;;;;;;;2.30;2.00;;;;;;;16.40;35.71;97589.75;5135632;27;20039;-66
2021/12/03 19:28:36;;;;;;;2.92;2.28;;;;;;;16.36;35.81;97575.22;5134995;27;20077;-65